Time;durP1;ratioP1;P1;durP2;ratioP2;P2;SDS_P1;SDS_P2;PMS_P1;PMS_P2;Temp;Humidity;BMP_temperature;BMP_pressure;BME280_temperature;BME280_humidity;BME280_pressure;Samples;Min_cycle;Max_cycle;Signal;HPM_P1;HPM_P2
2020/02/16 00:02:08;;;;;;;4.8;4;;;;;;;;;;;;;
2020/02/16 00:04:34;;;;;;;4.8;3.9;;;;;;;;;;;;;
2020/02/16 00:06:59;;;;;;;4.9;3.8;;;;;;;;;;;;;
2020/02/16 00:09:24;;;;;;;5.8;3.9;;;;;;;;;;;;;
2020/02/16 00:11:49;;;;;;;6.4;4.2;;;;;;;;;;;;;
2020/02/16 00:14:14;;;;;;;5.7;4.4;;;;;;;;;;;;;
2020/02/16 00:16:39;;;;;;;7.3;4.2;;;;;;;;;;;;;
2020/02/16 00:19:04;;;;;;;6.4;4.3;;;;;;;;;;;;;
2020/02/16 00:21:29;;;;;;;6.3;4.6;;;;;;;;;;;;;
2020/02/16 00:23:54;;;;;;;7.1;4.5;;;;;;;;;;;;;
2020/02/16 00:26:19;;;;;;;5.4;3.9;;;;;;;;;;;;;
2020/02/16 00:28:45;;;;;;;5;3.9;;;;;;;;;;;;;
2020/02/16 00:31:10;;;;;;;5;3.9;;;;;;;;;;;;;
2020/02/16 00:33:35;;;;;;;5;3.6;;;;;;;;;;;;;
2020/02/16 00:36:00;;;;;;;5.4;3.6;;;;;;;;;;;;;
2020/02/16 00:38:25;;;;;;;5.3;3.9;;;;;;;;;;;;;
2020/02/16 00:40:50;;;;;;;5.2;4;;;;;;;;;;;;;
2020/02/16 00:43:15;;;;;;;4.6;3.9;;;;;;;;;;;;;
2020/02/16 00:45:41;;;;;;;4.6;3.6;;;;;;;;;;;;;
2020/02/16 00:48:06;;;;;;;4.2;3.4;;;;;;;;;;;;;
2020/02/16 00:50:31;;;;;;;3.9;3.2;;;;;;;;;;;;;
2020/02/16 00:52:56;;;;;;;4.7;3.3;;;;;;;;;;;;;
2020/02/16 00:55:21;;;;;;;5.4;3.4;;;;;;;;;;;;;
2020/02/16 00:57:46;;;;;;;5.3;3.3;;;;;;;;;;;;;
2020/02/16 01:00:11;;;;;;;4.4;3.3;;;;;;;;;;;;;
2020/02/16 01:02:46;;;;;;;4.8;3;;;;;;;;;;;;;
2020/02/16 01:07:27;;;;;;;4.2;3.3;;;;;;;;;;;;;
2020/02/16 01:09:52;;;;;;;4;3.3;;;;;;;;;;;;;
2020/02/16 01:12:17;;;;;;;4.1;3.3;;;;;;;;;;;;;
2020/02/16 01:14:42;;;;;;;3.6;3;;;;;;;;;;;;;
2020/02/16 01:17:07;;;;;;;4.6;3.3;;;;;;;;;;;;;
2020/02/16 01:19:32;;;;;;;4.1;3;;;;;;;;;;;;;
2020/02/16 01:22:07;;;;;;;3.7;3;;;;;;;;;;;;;
2020/02/16 01:24:32;;;;;;;3.6;2.9;;;;;;;;;;;;;
2020/02/16 01:26:57;;;;;;;4.3;3;;;;;;;;;;;;;
2020/02/16 01:29:22;;;;;;;3.4;2.7;;;;;;;;;;;;;
2020/02/16 01:31:47;;;;;;;5.7;2.6;;;;;;;;;;;;;
2020/02/16 01:34:13;;;;;;;3.2;2.3;;;;;;;;;;;;;
2020/02/16 01:36:38;;;;;;;3.6;2.5;;;;;;;;;;;;;
2020/02/16 01:39:04;;;;;;;2.7;2.2;;;;;;;;;;;;;
2020/02/16 01:41:28;;;;;;;2.5;2.1;;;;;;;;;;;;;
2020/02/16 01:43:53;;;;;;;2.7;2.1;;;;;;;;;;;;;
2020/02/16 01:46:18;;;;;;;3.1;2.1;;;;;;;;;;;;;
2020/02/16 01:48:43;;;;;;;2.3;2.1;;;;;;;;;;;;;
2020/02/16 01:51:08;;;;;;;3;2.2;;;;;;;;;;;;;
2020/02/16 01:53:34;;;;;;;3.2;2.1;;;;;;;;;;;;;
2020/02/16 01:55:59;;;;;;;2.9;2.1;;;;;;;;;;;;;
2020/02/16 01:58:24;;;;;;;3.1;2;;;;;;;;;;;;;
2020/02/16 02:00:49;;;;;;;2.4;2;;;;;;;;;;;;;
2020/02/16 02:03:14;;;;;;;2.7;1.8;;;;;;;;;;;;;
2020/02/16 02:05:39;;;;;;;2.9;1.8;;;;;;;;;;;;;
2020/02/16 02:08:04;;;;;;;2.9;1.9;;;;;;;;;;;;;
2020/02/16 02:10:29;;;;;;;2.6;1.9;;;;;;;;;;;;;
2020/02/16 02:13:11;;;;;;;2.5;1.8;;;;;;;;;;;;;
2020/02/16 02:15:36;;;;;;;2.5;1.8;;;;;;;;;;;;;
2020/02/16 02:20:36;;;;;;;3;2.1;;;;;;;;;;;;;
2020/02/16 02:23:01;;;;;;;2.3;1.9;;;;;;;;;;;;;
2020/02/16 02:25:26;;;;;;;2.3;1.9;;;;;;;;;;;;;
2020/02/16 02:27:51;;;;;;;4.1;2.3;;;;;;;;;;;;;
2020/02/16 02:30:16;;;;;;;3.6;1.9;;;;;;;;;;;;;
2020/02/16 02:32:41;;;;;;;2.9;1.8;;;;;;;;;;;;;
2020/02/16 02:35:06;;;;;;;2.1;1.7;;;;;;;;;;;;;
2020/02/16 02:37:31;;;;;;;3.7;1.9;;;;;;;;;;;;;
2020/02/16 02:39:57;;;;;;;3;1.8;;;;;;;;;;;;;
2020/02/16 02:42:22;;;;;;;2.4;1.9;;;;;;;;;;;;;
2020/02/16 02:44:47;;;;;;;3.2;1.8;;;;;;;;;;;;;
2020/02/16 02:47:12;;;;;;;1.9;1.6;;;;;;;;;;;;;
2020/02/16 02:49:37;;;;;;;3.3;1.8;;;;;;;;;;;;;
2020/02/16 02:52:02;;;;;;;2.8;1.8;;;;;;;;;;;;;
2020/02/16 02:54:27;;;;;;;2.8;1.8;;;;;;;;;;;;;
2020/02/16 02:56:52;;;;;;;3.2;1.8;;;;;;;;;;;;;
2020/02/16 02:59:17;;;;;;;2.8;1.7;;;;;;;;;;;;;
2020/02/16 03:01:43;;;;;;;2.4;1.6;;;;;;;;;;;;;
2020/02/16 03:04:08;;;;;;;2.5;1.7;;;;;;;;;;;;;
2020/02/16 03:06:33;;;;;;;2.8;1.6;;;;;;;;;;;;;
2020/02/16 03:08:58;;;;;;;2.3;1.6;;;;;;;;;;;;;
2020/02/16 03:11:23;;;;;;;2.1;1.4;;;;;;;;;;;;;
2020/02/16 03:13:48;;;;;;;2.7;1.5;;;;;;;;;;;;;
2020/02/16 03:16:13;;;;;;;3.2;1.7;;;;;;;;;;;;;
2020/02/16 03:18:38;;;;;;;2;1.5;;;;;;;;;;;;;
2020/02/16 03:21:03;;;;;;;2.2;1.4;;;;;;;;;;;;;
2020/02/16 03:23:28;;;;;;;2.1;1.5;;;;;;;;;;;;;
2020/02/16 03:25:53;;;;;;;2.2;1.5;;;;;;;;;;;;;
2020/02/16 03:28:18;;;;;;;2.6;1.6;;;;;;;;;;;;;
2020/02/16 03:30:43;;;;;;;2.3;1.5;;;;;;;;;;;;;
2020/02/16 03:33:09;;;;;;;2.7;1.6;;;;;;;;;;;;;
2020/02/16 03:35:35;;;;;;;2;1.7;;;;;;;;;;;;;
2020/02/16 03:37:59;;;;;;;2.4;1.4;;;;;;;;;;;;;
2020/02/16 03:40:24;;;;;;;2.4;1.7;;;;;;;;;;;;;
2020/02/16 03:42:51;;;;;;;3.2;1.5;;;;;;;;;;;;;
2020/02/16 03:45:14;;;;;;;3;1.5;;;;;;;;;;;;;
2020/02/16 03:47:39;;;;;;;1.7;1.3;;;;;;;;;;;;;
2020/02/16 03:50:04;;;;;;;2.2;1.2;;;;;;;;;;;;;
2020/02/16 03:52:29;;;;;;;1.6;1.3;;;;;;;;;;;;;
2020/02/16 03:54:55;;;;;;;3.1;1.5;;;;;;;;;;;;;
2020/02/16 03:57:19;;;;;;;1.8;1.2;;;;;;;;;;;;;
2020/02/16 03:59:45;;;;;;;4.2;1.4;;;;;;;;;;;;;
2020/02/16 04:02:28;;;;;;;1.9;1.2;;;;;;;5.68;66.14551;961.7701;;;;
2020/02/16 04:04:53;;;;;;;2.9;1.2;;;;;;;5.76;65.66895;961.6628;;;;
2020/02/16 04:07:18;;;;;;;1.5;1.2;;;;;;;5.74;65.72266;961.6683;;;;
2020/02/16 04:09:43;;;;;;;2.2;1.3;;;;;;;5.66;64.66406;961.6718;;;;
2020/02/16 04:12:08;;;;;;;1.6;1.2;;;;;;;5.64;65.3418;961.5915;;;;
2020/02/16 04:14:33;;;;;;;1.6;1.3;;;;;;;5.52;65.91699;961.5867;;;;
2020/02/16 04:17:02;;;;;;;1.6;1.2;;;;;;;5.48;66.84277;961.476;;;;
2020/02/16 04:19:24;;;;;;;1.5;1.2;;;;;;;5.28;67.17578;961.5613;;;;
2020/02/16 04:21:51;;;;;;;2.9;1.5;;;;;;;5.35;66.86719;961.603;;;;
2020/02/16 04:24:15;;;;;;;2.2;1.5;;;;;;;5.35;67.56152;961.5739;;;;
2020/02/16 04:26:53;;;;;;;1.6;1.2;;;;;;;5.36;66.16406;961.5591;;;;
2020/02/16 04:29:05;;;;;;;2.1;1.4;;;;;;;5.37;67.08789;961.5499;;;;
2020/02/16 04:31:33;;;;;;;2.5;1.5;;;;;;;5.29;67.84863;961.5228;;;;
2020/02/16 04:33:59;;;;;;;2.7;1.2;;;;;;;5.31;67.05566;961.6152;;;;
2020/02/16 04:36:21;;;;;;;2.2;1.3;;;;;;;5.4;67.22852;961.6156;;;;
2020/02/16 04:38:46;;;;;;;2.8;1.4;;;;;;;5.4;66.03418;961.6639;;;;
2020/02/16 04:41:12;;;;;;;1.8;1.5;;;;;;;5.44;65.1084;961.6782;;;;
2020/02/16 04:43:37;;;;;;;3.1;1.3;;;;;;;5.4;65.39746;961.6373;;;;
2020/02/16 04:46:02;;;;;;;2.6;1.3;;;;;;;5.34;66.23047;961.6229;;;;
2020/02/16 04:48:27;;;;;;;1.9;1.3;;;;;;;5.39;66.4541;961.6225;;;;
2020/02/16 04:50:52;;;;;;;1.5;1.3;;;;;;;5.43;65.06055;961.5303;;;;
2020/02/16 04:53:17;;;;;;;2.9;1.4;;;;;;;5.41;65.59082;961.577;;;;
2020/02/16 04:55:43;;;;;;;1.8;1.3;;;;;;;5.35;66.91309;961.5067;;;;
2020/02/16 04:58:08;;;;;;;1.6;1.2;;;;;;;5.37;65.00684;961.4941;;;;
2020/02/16 05:00:33;;;;;;;2;1.3;;;;;;;5.37;65.98438;961.5425;;;;
2020/02/16 05:03:00;;;;;;;3.5;1.5;;;;;;;5.21;65.55176;961.4842;;;;
2020/02/16 05:05:24;;;;;;;1.7;1.3;;;;;;;5.3;65.76953;961.512;;;;
2020/02/16 05:07:49;;;;;;;1.3;1.2;;;;;;;5.32;65.77344;961.5206;;;;
2020/02/16 05:10:14;;;;;;;1.6;1.3;;;;;;;5.29;66.42676;961.472;;;;
2020/02/16 05:12:39;;;;;;;2.3;1.4;;;;;;;5.2;65.53809;961.4843;;;;
2020/02/16 05:15:04;;;;;;;2.3;1.5;;;;;;;5.33;64.48828;961.5197;;;;
2020/02/16 05:17:29;;;;;;;1.7;1.2;;;;;;;5.3;65.49609;961.6559;;;;
2020/02/16 05:19:55;;;;;;;1.9;1.2;;;;;;;5.44;65.20996;961.6746;;;;
2020/02/16 05:22:20;;;;;;;2.5;1.3;;;;;;;5.44;64.70898;961.7263;;;;
2020/02/16 05:24:45;;;;;;;2.1;1.4;;;;;;;5.47;65.7041;961.688;;;;
2020/02/16 05:27:10;;;;;;;1.6;1.3;;;;;;;5.47;64.82813;961.7073;;;;
2020/02/16 05:29:35;;;;;;;3;1.5;;;;;;;5.42;65.71973;961.6942;;;;
2020/02/16 05:32:01;;;;;;;2.6;1.5;;;;;;;5.49;65.16113;961.6841;;;;
2020/02/16 05:34:26;;;;;;;3.1;1.5;;;;;;;5.53;64.82715;961.6986;;;;
2020/02/16 05:36:51;;;;;;;1.8;1.2;;;;;;;5.57;64.43359;961.7935;;;;
2020/02/16 05:39:16;;;;;;;2.1;1.2;;;;;;;5.56;64.8877;961.752;;;;
2020/02/16 05:41:41;;;;;;;2.4;1.4;;;;;;;5.59;65.58691;961.7839;;;;
2020/02/16 05:44:07;;;;;;;2.6;1.5;;;;;;;5.49;65.52539;961.8513;;;;
2020/02/16 05:46:32;;;;;;;2.7;1.5;;;;;;;5.4;66.31836;961.7561;;;;
2020/02/16 05:48:57;;;;;;;2.1;1.7;;;;;;;5.38;66.55469;961.6409;;;;
2020/02/16 05:51:22;;;;;;;2.4;1.6;;;;;;;5.2;67.64063;961.6727;;;;
2020/02/16 05:53:47;;;;;;;3.2;1.7;;;;;;;5.3;67.29297;961.7253;;;;
2020/02/16 05:56:12;;;;;;;2.6;1.8;;;;;;;5.27;67.24316;961.7299;;;;
2020/02/16 05:58:37;;;;;;;3;1.9;;;;;;;5.34;66.02637;961.7198;;;;
2020/02/16 06:01:03;;;;;;;3.2;2.1;;;;;;;5.28;66.44727;961.8092;;;;
2020/02/16 06:03:28;;;;;;;2.2;1.6;;;;;;;5.42;64.74121;961.808;;;;
2020/02/16 06:05:53;;;;;;;1.9;1.5;;;;;;;5.45;65.67871;961.8118;;;;
2020/02/16 06:08:18;;;;;;;2.9;2.1;;;;;;;5.47;64.86133;961.7541;;;;
2020/02/16 06:10:43;;;;;;;2.6;1.8;;;;;;;5.45;65.54102;961.6936;;;;
2020/02/16 06:13:08;;;;;;;2.6;1.7;;;;;;;5.51;64.68652;961.5839;;;;
2020/02/16 06:15:34;;;;;;;5.4;3.4;;;;;;;5.54;63.82715;961.5416;;;;
2020/02/16 06:17:59;;;;;;;4.1;2.8;;;;;;;5.63;66.44629;961.5405;;;;
2020/02/16 06:20:24;;;;;;;3;2.1;;;;;;;5.65;63.83203;961.545;;;;
2020/02/16 06:22:49;;;;;;;2.2;1.5;;;;;;;5.63;63.60156;961.5364;;;;
2020/02/16 06:25:25;;;;;;;2;1.1;;;;;;;5.76;63.48535;961.527;;;;
2020/02/16 06:27:50;;;;;;;1.4;0.9;;;;;;;5.78;62.85059;961.5264;;;;
2020/02/16 06:30:15;;;;;;;1.7;1.1;;;;;;;5.78;63.47656;961.5901;;;;
2020/02/16 06:32:40;;;;;;;2.6;1;;;;;;;5.88;62.60156;961.5746;;;;
2020/02/16 06:35:05;;;;;;;2.1;1;;;;;;;5.88;63.60352;961.5196;;;;
2020/02/16 06:37:30;;;;;;;1.9;1;;;;;;;5.83;62.89063;961.5798;;;;
2020/02/16 06:39:55;;;;;;;1.1;0.9;;;;;;;5.86;63.93164;961.6275;;;;
2020/02/16 06:42:20;;;;;;;1.2;0.9;;;;;;;5.93;63.97559;961.6142;;;;
2020/02/16 06:44:45;;;;;;;1.3;1;;;;;;;5.94;62.53223;961.5912;;;;
2020/02/16 06:47:17;;;;;;;1.5;1.1;;;;;;;5.92;63.30273;961.5477;;;;
2020/02/16 06:49:49;;;;;;;1.4;0.9;;;;;;;5.96;63.86719;961.584;;;;
2020/02/16 06:56:57;;;;;;;2.1;1.1;;;;;;;5.88;63.28418;961.6206;;;;
2020/02/16 06:59:19;;;;;;;1.6;1.1;;;;;;;5.81;64.90332;961.5776;;;;
2020/02/16 07:02:06;;;;;;;1.9;1.1;;;;;;;5.79;65.56055;961.6478;;;;
2020/02/16 07:04:10;;;;;;;1.5;1.2;;;;;;;5.82;65.29102;961.5836;;;;
2020/02/16 07:06:35;;;;;;;1.9;1.1;;;;;;;5.81;64.81055;961.6284;;;;
2020/02/16 07:09:00;;;;;;;2.2;1.2;;;;;;;5.87;64.67383;961.5889;;;;
2020/02/16 07:11:25;;;;;;;2.1;1.3;;;;;;;5.84;66.25;961.5336;;;;
2020/02/16 07:13:50;;;;;;;3;1.3;;;;;;;5.83;65.71387;961.5491;;;;
2020/02/16 07:16:15;;;;;;;2.9;1.5;;;;;;;5.86;66.9375;961.6102;;;;
2020/02/16 07:18:40;;;;;;;2.7;1.5;;;;;;;5.83;65.05371;961.6406;;;;
2020/02/16 07:21:21;;;;;;;3;1.9;;;;;;;5.87;66.4834;961.6099;;;;
2020/02/16 07:23:46;;;;;;;4;1.7;;;;;;;5.89;65.99707;961.6825;;;;
2020/02/16 07:26:12;;;;;;;2.1;1.6;;;;;;;5.98;66.21582;961.7244;;;;
2020/02/16 07:28:37;;;;;;;1.7;1.4;;;;;;;5.94;64.80859;961.7003;;;;
2020/02/16 07:31:02;;;;;;;1.9;1.4;;;;;;;6.11;65.14258;961.7153;;;;
2020/02/16 07:33:27;;;;;;;2.6;1.3;;;;;;;6.27;63.77539;961.778;;;;
2020/02/16 07:35:52;;;;;;;2.7;1.5;;;;;;;6.27;65.0752;961.7327;;;;
2020/02/16 07:38:17;;;;;;;2.1;1.3;;;;;;;6.24;64.78418;961.7411;;;;
2020/02/16 07:40:42;;;;;;;1.9;1.3;;;;;;;6.21;63.61816;961.7224;;;;
2020/02/16 07:43:08;;;;;;;2.1;1.5;;;;;;;6.26;64.53809;961.7397;;;;
2020/02/16 07:45:33;;;;;;;2;1.5;;;;;;;6.37;63.55078;961.7333;;;;
2020/02/16 07:47:58;;;;;;;2;1.5;;;;;;;6.43;63.25293;961.7792;;;;
2020/02/16 07:50:23;;;;;;;2.3;1.6;;;;;;;6.38;65.06934;961.7405;;;;
2020/02/16 07:52:48;;;;;;;2.4;1.5;;;;;;;6.59;63.73145;961.8251;;;;
2020/02/16 07:55:13;;;;;;;2.9;2;;;;;;;6.47;64.61426;961.7922;;;;
2020/02/16 07:57:39;;;;;;;3.3;1.6;;;;;;;6.45;64.81738;961.8311;;;;
2020/02/16 08:00:04;;;;;;;2.1;1.8;;;;;;;6.49;63.43262;961.7892;;;;
2020/02/16 08:02:29;;;;;;;3.2;1.6;;;;;;;6.6;64.63477;961.8028;;;;
2020/02/16 08:04:54;;;;;;;3.3;1.8;;;;;;;6.66;64.0625;961.7104;;;;
2020/02/16 08:07:20;;;;;;;2.7;1.8;;;;;;;6.66;64.76855;961.6691;;;;
2020/02/16 08:09:45;;;;;;;3.6;1.9;;;;;;;6.81;65.34082;961.6464;;;;
2020/02/16 08:12:10;;;;;;;3.4;1.9;;;;;;;6.66;64.51855;961.6213;;;;
2020/02/16 08:14:35;;;;;;;3.4;2.1;;;;;;;6.82;64.41797;961.6728;;;;
2020/02/16 08:17:01;;;;;;;2.5;1.7;;;;;;;6.9;64.42871;961.6381;;;;
2020/02/16 08:19:26;;;;;;;2.6;1.7;;;;;;;7.06;63.86035;961.6175;;;;
2020/02/16 08:21:51;;;;;;;3;1.7;;;;;;;7.05;63.13965;961.5578;;;;
2020/02/16 08:24:16;;;;;;;2.9;1.4;;;;;;;7.23;61.63477;961.5906;;;;
2020/02/16 08:26:41;;;;;;;2.3;1.6;;;;;;;7.24;59.91309;961.4788;;;;
2020/02/16 08:29:12;;;;;;;2.8;1.7;;;;;;;7.3;61.74805;961.5262;;;;
2020/02/16 08:31:31;;;;;;;3.1;1.8;;;;;;;7.37;61.33496;961.5836;;;;
2020/02/16 08:33:57;;;;;;;2.9;1.8;;;;;;;7.44;61.60742;961.5826;;;;
2020/02/16 08:36:22;;;;;;;2.6;1.7;;;;;;;7.61;59.82715;961.608;;;;
2020/02/16 08:38:47;;;;;;;4;1.8;;;;;;;7.86;59.74609;961.6072;;;;
2020/02/16 08:41:12;;;;;;;2.2;1.7;;;;;;;8.06;59.19141;961.621;;;;
2020/02/16 08:43:37;;;;;;;2.8;1.3;;;;;;;8.24;58.17383;961.5797;;;;
2020/02/16 08:46:02;;;;;;;2.2;1.5;;;;;;;8.41;57.93359;961.5772;;;;
2020/02/16 08:48:28;;;;;;;2.3;1.5;;;;;;;8.3;57.97656;961.6027;;;;
2020/02/16 08:50:53;;;;;;;2.3;1.3;;;;;;;8.47;56.7627;961.6172;;;;
2020/02/16 08:53:18;;;;;;;2.5;1.2;;;;;;;8.61;56.40234;961.6383;;;;
2020/02/16 08:55:58;;;;;;;2;1.3;;;;;;;8.76;55.5166;961.6451;;;;
2020/02/16 08:58:08;;;;;;;2.4;1.5;;;;;;;8.9;55.39746;961.6387;;;;
2020/02/16 09:00:34;;;;;;;2.1;1.1;;;;;;;8.99;56.78613;961.5234;;;;
2020/02/16 09:02:59;;;;;;;2.4;1.4;;;;;;;9.15;54.73047;961.4554;;;;
2020/02/16 09:05:24;;;;;;;1.9;1.3;;;;;;;9.24;54.87793;961.4603;;;;
2020/02/16 09:07:50;;;;;;;2.9;1.4;;;;;;;9.34;54.69629;961.4958;;;;
2020/02/16 09:10:15;;;;;;;1.9;1.2;;;;;;;9.49;54.47461;961.4989;;;;
2020/02/16 09:12:40;;;;;;;3;1.2;;;;;;;9.57;54.2998;961.5683;;;;
2020/02/16 09:15:05;;;;;;;1.6;1.1;;;;;;;9.56;54.38086;961.5844;;;;
2020/02/16 09:17:30;;;;;;;3.5;1.3;;;;;;;9.65;54.34473;961.5233;;;;
2020/02/16 09:19:55;;;;;;;3.6;1.5;;;;;;;9.79;54.12109;961.4813;;;;
2020/02/16 09:22:20;;;;;;;3.7;1.5;;;;;;;9.91;54.25098;961.4623;;;;
2020/02/16 09:24:45;;;;;;;3;1.8;;;;;;;10.03;54.18555;961.3553;;;;
2020/02/16 09:27:10;;;;;;;4.5;2.4;;;;;;;10;54.04492;961.4783;;;;
2020/02/16 09:29:35;;;;;;;3.4;2.4;;;;;;;10.11;53.10449;961.4156;;;;
2020/02/16 09:32:00;;;;;;;3.4;2.1;;;;;;;10.04;54.01465;961.4434;;;;
2020/02/16 09:34:26;;;;;;;3.4;1.9;;;;;;;10.15;53.61426;961.4249;;;;
2020/02/16 09:36:51;;;;;;;3.2;2;;;;;;;10.21;53.12793;961.4009;;;;
2020/02/16 09:39:16;;;;;;;5.4;2.1;;;;;;;10.24;52.30273;961.4637;;;;
2020/02/16 09:41:41;;;;;;;3.9;2.1;;;;;;;10.34;52.87988;961.4515;;;;
2020/02/16 09:44:06;;;;;;;3;2.1;;;;;;;10.39;51.84961;961.3826;;;;
2020/02/16 09:46:31;;;;;;;2.9;2;;;;;;;10.53;52.58105;961.4064;;;;
2020/02/16 09:48:56;;;;;;;3.1;2.1;;;;;;;10.7;51.32324;961.4816;;;;
2020/02/16 09:51:21;;;;;;;3.2;2.2;;;;;;;10.87;52.90918;961.5145;;;;
2020/02/16 09:53:46;;;;;;;3.1;1.8;;;;;;;10.9;52.21094;961.5527;;;;
2020/02/16 09:56:11;;;;;;;2.7;2.1;;;;;;;10.9;51.2666;961.5869;;;;
2020/02/16 09:58:36;;;;;;;2.6;1.9;;;;;;;11.01;51.87793;961.5975;;;;
2020/02/16 10:01:01;;;;;;;3.5;1.9;;;;;;;11.09;50.36621;961.5931;;;;
2020/02/16 10:03:26;;;;;;;2.8;1.8;;;;;;;11.06;51.00781;961.5559;;;;
2020/02/16 10:05:51;;;;;;;3;1.9;;;;;;;11.13;53.55273;961.6219;;;;
2020/02/16 10:10:42;;;;;;;4.2;2;;;;;;;11.38;50.90723;961.7156;;;;
2020/02/16 10:13:07;;;;;;;3.3;1.8;;;;;;;11.45;51.25;961.6599;;;;
2020/02/16 10:15:32;;;;;;;3.6;2.1;;;;;;;11.44;51.51563;961.6344;;;;
2020/02/16 10:17:57;;;;;;;3.1;1.8;;;;;;;11.56;51.03223;961.5558;;;;
2020/02/16 10:20:22;;;;;;;2.3;1.8;;;;;;;11.65;51.59766;961.5762;;;;
2020/02/16 10:22:47;;;;;;;2.9;1.7;;;;;;;11.69;52.14453;961.5312;;;;
2020/02/16 10:25:12;;;;;;;2.7;1.7;;;;;;;11.86;51.72754;961.55;;;;
2020/02/16 10:27:37;;;;;;;3.1;1.7;;;;;;;11.92;52.24023;961.5779;;;;
2020/02/16 10:30:02;;;;;;;3.7;1.9;;;;;;;12.03;52.53125;961.5604;;;;
2020/02/16 10:34:58;;;;;;;2.6;1.6;;;;;;;12.23;51.6084;961.6075;;;;
2020/02/16 10:37:18;;;;;;;3.8;2.1;;;;;;;12.29;51.41895;961.6362;;;;
2020/02/16 10:39:43;;;;;;;2.9;2.2;;;;;;;12.39;52.19434;961.598;;;;
2020/02/16 10:49:36;;;;;;;3.2;2;;;;;;;12.52;51.37598;961.478;;;;
2020/02/16 10:51:48;;;;;;;2.6;1.5;;;;;;;12.71;50.15039;961.434;;;;
2020/02/16 10:54:13;;;;;;;3.2;1.9;;;;;;;12.76;50.21484;961.4528;;;;
2020/02/16 10:56:39;;;;;;;3.1;2.2;;;;;;;12.7;50.49609;961.3031;;;;
2020/02/16 10:59:04;;;;;;;3.6;2.1;;;;;;;12.79;51.35156;961.3011;;;;
2020/02/16 11:01:29;;;;;;;4.1;2.5;;;;;;;12.78;52.32227;961.2977;;;;
2020/02/16 11:03:54;;;;;;;2.8;1.8;;;;;;;12.74;52.10938;961.2349;;;;
2020/02/16 11:06:19;;;;;;;4.5;2;;;;;;;12.78;50.38965;961.144;;;;
2020/02/16 11:08:44;;;;;;;3.7;1.8;;;;;;;12.81;51.64258;961.1608;;;;
2020/02/16 11:11:10;;;;;;;4.5;2.5;;;;;;;12.82;52.01465;961.1256;;;;
2020/02/16 11:13:35;;;;;;;4.2;2.7;;;;;;;12.95;51.54395;961.0567;;;;
2020/02/16 11:16:00;;;;;;;3.3;1.9;;;;;;;12.96;53.1416;961.0186;;;;
2020/02/16 11:18:25;;;;;;;4;2.2;;;;;;;12.89;50.27539;961.0273;;;;
2020/02/16 11:20:50;;;;;;;3.7;1.7;;;;;;;13.09;49.70898;960.9792;;;;
2020/02/16 11:23:15;;;;;;;3.1;1.9;;;;;;;13.08;49.33594;960.9178;;;;
2020/02/16 11:25:40;;;;;;;3.2;1.9;;;;;;;13.14;48.38281;960.8817;;;;
2020/02/16 11:28:05;;;;;;;2.9;1.5;;;;;;;13.13;48.76367;960.799;;;;
2020/02/16 11:30:31;;;;;;;3.2;2.4;;;;;;;13.16;49.84375;960.7752;;;;
2020/02/16 11:32:56;;;;;;;3.3;1.8;;;;;;;13.24;48.72949;960.7419;;;;
2020/02/16 11:35:21;;;;;;;2.5;1.7;;;;;;;13.42;46.69922;960.7268;;;;
2020/02/16 11:37:46;;;;;;;3.4;1.8;;;;;;;13.3;48.46973;960.6774;;;;
2020/02/16 11:40:11;;;;;;;4.3;1.7;;;;;;;13.25;49.33203;960.6398;;;;
2020/02/16 11:42:36;;;;;;;3.8;1.8;;;;;;;13.32;49.21289;960.617;;;;
2020/02/16 11:45:01;;;;;;;2.5;1.7;;;;;;;13.36;48.11621;960.5862;;;;
2020/02/16 11:47:27;;;;;;;3.3;1.7;;;;;;;13.45;46.81836;960.5723;;;;
2020/02/16 11:49:53;;;;;;;2.1;1.5;;;;;;;13.37;47.79395;960.5006;;;;
2020/02/16 11:52:17;;;;;;;2.7;1.4;;;;;;;13.51;46.63867;960.5009;;;;
2020/02/16 11:54:42;;;;;;;2;1.5;;;;;;;13.47;51.39648;960.4253;;;;
2020/02/16 11:57:07;;;;;;;2.3;1.5;;;;;;;13.55;46.77148;960.4016;;;;
2020/02/16 11:59:32;;;;;;;1.8;1.3;;;;;;;13.55;47.08398;960.3188;;;;
2020/02/16 12:01:57;;;;;;;2;1.4;;;;;;;13.59;46.17188;960.2765;;;;
2020/02/16 12:04:23;;;;;;;3.1;1.8;;;;;;;13.6;46.08008;960.2388;;;;
2020/02/16 12:06:48;;;;;;;3.7;1.6;;;;;;;13.49;47.70313;960.1832;;;;
2020/02/16 12:09:13;;;;;;;2.5;1.4;;;;;;;13.65;45.69336;960.1722;;;;
2020/02/16 12:11:38;;;;;;;3.4;1.7;;;;;;;13.64;45.14648;960.2115;;;;
2020/02/16 12:14:03;;;;;;;3.1;1.8;;;;;;;13.83;45.31543;960.1531;;;;
2020/02/16 12:16:28;;;;;;;2.9;1.7;;;;;;;13.86;46.27051;960.0681;;;;
2020/02/16 12:18:53;;;;;;;2.6;1.4;;;;;;;13.84;45.88574;960.0342;;;;
2020/02/16 12:21:18;;;;;;;3;1.6;;;;;;;13.95;44.60938;960.022;;;;
2020/02/16 12:26:12;;;;;;;3.1;2.1;;;;;;;14.02;45.1748;959.9077;;;;
2020/02/16 12:31:03;;;;;;;3.5;2.3;;;;;;;14.14;45.32617;959.8674;;;;
2020/02/16 12:36:30;;;;;;;3.2;1.8;;;;;;;14.34;43.69824;959.7808;;;;
2020/02/16 12:41:00;;;;;;;2.7;1.8;;;;;;;14.36;43.8623;959.7036;;;;
2020/02/16 12:43:05;;;;;;;2.9;1.9;;;;;;;14.28;44.96875;959.6345;;;;
2020/02/16 12:45:30;;;;;;;3;1.6;;;;;;;14.3;45.75977;959.6044;;;;
2020/02/16 12:47:55;;;;;;;2.4;1.7;;;;;;;14.36;46.12695;959.5449;;;;
2020/02/16 12:50:20;;;;;;;3;1.8;;;;;;;14.32;46.70215;959.5305;;;;
2020/02/16 12:52:45;;;;;;;3.9;2;;;;;;;14.28;45.54883;959.5165;;;;
2020/02/16 12:55:11;;;;;;;3;1.7;;;;;;;14.28;47.44238;959.5296;;;;
2020/02/16 12:57:36;;;;;;;2;1.7;;;;;;;14.38;47.0459;959.4874;;;;
2020/02/16 13:00:01;;;;;;;3.4;1.9;;;;;;;14.43;46.21484;959.4006;;;;
2020/02/16 13:02:26;;;;;;;2.4;1.8;;;;;;;14.41;45.00586;959.3555;;;;
2020/02/16 13:04:51;;;;;;;2.9;1.7;;;;;;;14.48;45.84863;959.4026;;;;
2020/02/16 13:07:16;;;;;;;3.2;1.8;;;;;;;14.28;45.23633;959.3312;;;;
2020/02/16 13:09:41;;;;;;;3.4;2;;;;;;;14.34;46.32129;959.3109;;;;
2020/02/16 13:12:06;;;;;;;3.5;1.9;;;;;;;14.13;46.06738;959.3027;;;;
2020/02/16 13:14:31;;;;;;;2.9;1.9;;;;;;;14.21;47.00391;959.2841;;;;
2020/02/16 13:16:57;;;;;;;3.1;2;;;;;;;14.14;46.47363;959.215;;;;
2020/02/16 13:19:22;;;;;;;3.8;2.2;;;;;;;14;47.41113;959.0686;;;;
2020/02/16 13:21:47;;;;;;;3.6;2.3;;;;;;;13.91;49.30273;959.1116;;;;
2020/02/16 13:24:12;;;;;;;3.3;2.3;;;;;;;14;47.93262;959.0356;;;;
2020/02/16 13:26:37;;;;;;;3.1;2.3;;;;;;;13.9;48.08398;958.991;;;;
2020/02/16 13:29:03;;;;;;;3;2.2;;;;;;;13.93;47.36816;958.9182;;;;
2020/02/16 13:31:28;;;;;;;2.8;2.2;;;;;;;13.9;46.91309;958.8655;;;;
2020/02/16 13:33:53;;;;;;;3.7;2.6;;;;;;;13.8;47.56348;958.8333;;;;
2020/02/16 13:36:18;;;;;;;4.2;2.7;;;;;;;13.85;47.37109;958.8541;;;;
2020/02/16 13:38:44;;;;;;;3.1;2.4;;;;;;;13.89;47.13184;958.8434;;;;
2020/02/16 13:41:09;;;;;;;4.4;2.4;;;;;;;13.99;47.76953;958.8283;;;;
2020/02/16 13:43:34;;;;;;;3.8;2.5;;;;;;;14.07;47.47656;958.8075;;;;
2020/02/16 13:45:59;;;;;;;3;2.4;;;;;;;13.95;47.66016;958.5325;;;;
2020/02/16 13:48:24;;;;;;;2.8;2.2;;;;;;;14.01;48.21191;958.3516;;;;
2020/02/16 13:50:49;;;;;;;5.9;3.6;;;;;;;14.03;48.15723;958.3223;;;;
2020/02/16 13:53:14;;;;;;;3.9;2.7;;;;;;;14.07;47.62598;958.2307;;;;
2020/02/16 13:55:40;;;;;;;3.7;2.3;;;;;;;14.03;47.79688;958.2355;;;;
2020/02/16 13:58:05;;;;;;;2.3;1.2;;;;;;;13.98;46.73535;958.1967;;;;
2020/02/16 14:00:30;;;;;;;1.7;1;;;;;;;13.86;48.03418;958.079;;;;
2020/02/16 14:02:55;;;;;;;2.3;1;;;;;;;13.94;47.38184;958.0762;;;;
2020/02/16 14:05:20;;;;;;;2.6;1.3;;;;;;;14;46.90039;958.0753;;;;
2020/02/16 14:07:46;;;;;;;3;1.2;;;;;;;14.1;46.58691;958.0134;;;;
2020/02/16 14:10:11;;;;;;;3.2;1.2;;;;;;;14.21;46.77148;957.9803;;;;
2020/02/16 14:12:36;;;;;;;1.3;1;;;;;;;14.43;44.2168;957.9175;;;;
2020/02/16 14:15:01;;;;;;;1.6;0.9;;;;;;;14.43;47.15527;957.9067;;;;
2020/02/16 14:17:26;;;;;;;1.3;0.9;;;;;;;14.44;45.13574;957.8804;;;;
2020/02/16 14:19:51;;;;;;;2.3;1.1;;;;;;;14.47;44.75586;957.8895;;;;
2020/02/16 14:22:17;;;;;;;2.4;1.2;;;;;;;14.38;45.45508;957.8352;;;;
2020/02/16 14:24:42;;;;;;;2.7;1.3;;;;;;;14.46;44.45313;957.7969;;;;
2020/02/16 14:27:07;;;;;;;3.9;1.2;;;;;;;14.7;42.93262;957.7784;;;;
2020/02/16 14:29:32;;;;;;;2;1.4;;;;;;;14.73;42.74902;957.7563;;;;
2020/02/16 14:31:57;;;;;;;2.3;1.5;;;;;;;14.86;42.64551;957.7177;;;;
2020/02/16 14:34:22;;;;;;;1.3;1.2;;;;;;;14.83;42.39941;957.7037;;;;
2020/02/16 14:36:48;;;;;;;1.7;1.3;;;;;;;14.79;41.88379;957.7751;;;;
2020/02/16 14:39:13;;;;;;;2.8;1.2;;;;;;;14.97;41.85352;957.7645;;;;
2020/02/16 14:41:39;;;;;;;1.6;1.1;;;;;;;15.05;41.38477;957.7374;;;;
2020/02/16 14:44:04;;;;;;;2;1.2;;;;;;;14.96;41.27148;957.7662;;;;
2020/02/16 14:46:29;;;;;;;1.9;1.3;;;;;;;14.98;40.34375;957.7561;;;;
2020/02/16 14:49:06;;;;;;;1.6;1.3;;;;;;;15.06;40.11816;957.7725;;;;
2020/02/16 14:51:19;;;;;;;2.6;1.5;;;;;;;14.92;41.60449;957.7988;;;;
2020/02/16 14:53:44;;;;;;;2.2;1.3;;;;;;;14.91;40.84863;957.7374;;;;
2020/02/16 14:56:10;;;;;;;2;1.4;;;;;;;14.8;40.86133;957.7439;;;;
2020/02/16 14:58:40;;;;;;;1.9;1.2;;;;;;;14.69;42.00293;957.7269;;;;
2020/02/16 15:01:05;;;;;;;1.9;1.3;;;;;;;14.58;41.89746;957.7269;;;;
2020/02/16 15:03:30;;;;;;;1.7;1.3;;;;;;;14.55;41.00098;957.785;;;;
2020/02/16 15:05:56;;;;;;;1.8;1.3;;;;;;;14.37;41.72656;957.8025;;;;
2020/02/16 15:08:32;;;;;;;2.4;1.4;;;;;;;14.31;42.30078;957.8328;;;;
2020/02/16 15:10:46;;;;;;;1.8;1.5;;;;;;;14.22;42.89648;957.8908;;;;
2020/02/16 15:13:11;;;;;;;3.1;1.6;;;;;;;14.32;41.9082;957.8582;;;;
2020/02/16 15:15:36;;;;;;;3.7;1.4;;;;;;;14.24;42.95605;957.73;;;;
2020/02/16 15:18:01;;;;;;;2.9;1.5;;;;;;;14.29;42.60156;957.8228;;;;
2020/02/16 15:20:26;;;;;;;2.1;1.4;;;;;;;14.3;42.86914;957.8162;;;;
2020/02/16 15:22:51;;;;;;;1.6;1.3;;;;;;;14.15;43.71387;957.699;;;;
2020/02/16 15:25:17;;;;;;;2.3;1.2;;;;;;;14.05;44.11035;957.7224;;;;
2020/02/16 15:27:42;;;;;;;1.8;1.1;;;;;;;14.04;44.3291;957.8117;;;;
2020/02/16 15:30:07;;;;;;;3.5;1.8;;;;;;;14.45;42.54785;957.7576;;;;
2020/02/16 15:32:32;;;;;;;2.3;1.3;;;;;;;14.39;43.36621;957.6863;;;;
2020/02/16 15:34:57;;;;;;;1.8;1.2;;;;;;;14.18;44.14551;957.6556;;;;
2020/02/16 15:37:23;;;;;;;1.7;1.1;;;;;;;14.21;43.40625;957.7008;;;;
2020/02/16 15:39:48;;;;;;;1.7;1.4;;;;;;;14.19;43.64746;957.7456;;;;
2020/02/16 15:42:13;;;;;;;2.4;1.4;;;;;;;14.01;44.53516;957.6502;;;;
2020/02/16 15:44:39;;;;;;;1.8;1.3;;;;;;;14.09;45.14551;957.6749;;;;
2020/02/16 15:47:04;;;;;;;1.8;1.4;;;;;;;13.97;45.52832;957.6691;;;;
2020/02/16 15:49:29;;;;;;;1.6;1.2;;;;;;;13.83;45.93066;957.6464;;;;
2020/02/16 15:51:54;;;;;;;2;1.5;;;;;;;13.82;46.17383;957.6896;;;;
2020/02/16 15:54:19;;;;;;;2;1.3;;;;;;;13.81;46.47461;957.6652;;;;
2020/02/16 15:56:45;;;;;;;2.6;1.7;;;;;;;13.71;47.1709;957.709;;;;
2020/02/16 15:59:10;;;;;;;3.3;2;;;;;;;13.64;47.44141;957.6967;;;;
2020/02/16 16:01:35;;;;;;;2.8;1.8;;;;;;;13.58;48.50098;957.7354;;;;
2020/02/16 16:04:00;;;;;;;1.8;1.5;;;;;;;13.57;46.28613;957.7436;;;;